Time;durP1;ratioP1;P1;durP2;ratioP2;P2;SDS_P1;SDS_P2;PMS_P1;PMS_P2;Temp;Humidity;BMP_temperature;BMP_pressure;BME280_temperature;BME280_humidity;BME280_pressure;Samples;Min_cycle;Max_cycle;Signal;HPM_P1;HPM_P2
2022/11/22 00:01:58;;;;;;;11.73;9.03;;;-0.30;99.90;;;;;;4969013;28;20226;-73
2022/11/22 00:04:25;;;;;;;10.33;9.07;;;-0.20;99.90;;;;;;4972130;28;20198;-73
2022/11/22 00:06:54;;;;;;;9.70;7.93;;;-0.20;99.90;;;;;;4971849;28;20239;-74
2022/11/22 00:09:20;;;;;;;10.57;9.10;;;-0.30;99.90;;;;;;4971612;28;20313;-76
2022/11/22 00:11:47;;;;;;;11.30;9.63;;;-0.30;99.90;;;;;;4972146;28;20298;-73
2022/11/22 00:14:14;;;;;;;11.90;9.13;;;-0.20;99.90;;;;;;4972465;28;20250;-78
2022/11/22 00:16:41;;;;;;;9.03;8.00;;;-0.20;99.90;;;;;;4972021;28;20291;-76
2022/11/22 00:19:09;;;;;;;9.67;8.57;;;-0.30;99.90;;;;;;4972413;28;20205;-78
2022/11/22 00:21:36;;;;;;;10.20;7.93;;;-0.30;99.90;;;;;;4972447;28;20689;-75
2022/11/22 00:24:04;;;;;;;9.00;8.07;;;-0.30;99.90;;;;;;4972236;28;20289;-80
2022/11/22 00:26:31;;;;;;;10.13;8.00;;;-0.30;99.90;;;;;;4972635;28;20264;-79
2022/11/22 00:28:58;;;;;;;8.57;7.67;;;-0.40;99.90;;;;;;4972397;28;20349;-79
2022/11/22 00:31:25;;;;;;;9.00;7.80;;;-0.30;99.90;;;;;;4971418;28;20674;-76
2022/11/22 00:33:52;;;;;;;8.37;7.47;;;-0.30;99.90;;;;;;4972076;28;20206;-78
2022/11/22 00:36:18;;;;;;;10.60;8.07;;;-0.40;99.90;;;;;;4971518;28;20329;-79
2022/11/22 00:38:45;;;;;;;8.67;7.87;;;-0.40;99.90;;;;;;4971837;28;20214;-73
2022/11/22 00:41:13;;;;;;;9.07;7.83;;;-0.50;99.90;;;;;;4972073;28;20289;-72
2022/11/22 00:43:40;;;;;;;9.80;8.20;;;-0.50;99.90;;;;;;4971766;28;20306;-73
2022/11/22 00:46:08;;;;;;;11.13;9.50;;;-0.50;99.90;;;;;;4971227;28;20305;-76
2022/11/22 00:48:34;;;;;;;10.37;8.20;;;-0.50;99.90;;;;;;4972064;28;20290;-76
2022/11/22 00:51:01;;;;;;;9.43;8.10;;;-0.50;99.90;;;;;;4971181;28;20665;-73
2022/11/22 00:53:28;;;;;;;9.27;8.27;;;-0.40;99.90;;;;;;4971779;28;20266;-76
2022/11/22 00:55:55;;;;;;;9.50;8.13;;;-0.50;99.90;;;;;;4971176;28;20781;-75
2022/11/22 00:58:23;;;;;;;10.10;8.73;;;-0.50;99.90;;;;;;4971686;28;20206;-73
2022/11/22 01:00:50;;;;;;;9.97;8.87;;;-0.40;99.90;;;;;;4970999;28;20485;-73
2022/11/22 01:03:18;;;;;;;13.93;9.27;;;-0.50;99.90;;;;;;4971316;28;20203;-76
2022/11/22 01:05:44;;;;;;;10.87;8.60;;;-0.50;99.90;;;;;;4971123;28;20243;-74
2022/11/22 01:08:11;;;;;;;9.97;8.60;;;-0.50;99.90;;;;;;4971292;28;20297;-74
2022/11/22 01:10:38;;;;;;;9.17;8.27;;;-0.50;99.90;;;;;;4971642;28;20274;-76
2022/11/22 01:13:05;;;;;;;11.07;9.07;;;-0.50;99.90;;;;;;4970985;28;20215;-73
2022/11/22 01:15:35;;;;;;;10.17;9.00;;;-0.50;99.90;;;;;;4970891;28;20329;-72
2022/11/22 01:18:02;;;;;;;10.37;8.50;;;-0.50;99.90;;;;;;4971486;28;20305;-73
2022/11/22 01:20:30;;;;;;;10.17;8.87;;;-0.50;99.90;;;;;;4971030;28;20673;-74
2022/11/22 01:22:57;;;;;;;10.10;8.80;;;-0.50;99.90;;;;;;4971053;28;20214;-77
2022/11/22 01:25:23;;;;;;;10.47;9.33;;;-0.50;99.90;;;;;;4970969;28;20341;-73
2022/11/22 01:27:51;;;;;;;10.93;8.80;;;-0.50;99.90;;;;;;4970955;28;20269;-76
2022/11/22 01:30:18;;;;;;;9.33;8.23;;;-0.60;99.90;;;;;;4970979;28;20541;-75
2022/11/22 01:32:46;;;;;;;11.07;9.13;;;-0.60;99.90;;;;;;4970999;28;20298;-74
2022/11/22 01:35:13;;;;;;;11.33;9.10;;;-0.60;99.90;;;;;;4970586;28;20238;-73
2022/11/22 01:37:40;;;;;;;11.30;9.37;;;-0.60;99.90;;;;;;4970949;28;20746;-73
2022/11/22 01:40:08;;;;;;;12.03;9.50;;;-0.60;99.90;;;;;;4970856;28;20212;-72
2022/11/22 01:42:46;;;;;;;11.73;9.10;;;-0.60;99.90;;;;;;4971146;28;20634;-74
2022/11/22 01:45:41;;;;;;;12.47;9.90;;;-0.60;99.90;;;;;;4970491;28;20217;-73
2022/11/22 01:48:23;;;;;;;10.40;9.30;;;-0.60;99.90;;;;;;4951289;28;20203;-75
2022/11/22 01:50:55;;;;;;;11.77;9.03;;;-0.60;99.90;;;;;;4951358;28;21037;-73
2022/11/22 01:53:28;;;;;;;11.03;9.60;;;-0.60;99.90;;;;;;4951292;28;20275;-73
2022/11/22 01:55:56;;;;;;;10.57;9.27;;;-0.60;99.90;;;;;;4959472;28;20329;-73
2022/11/22 01:58:24;;;;;;;12.07;9.63;;;-0.60;99.90;;;;;;4970319;28;20221;-73
2022/11/22 02:00:53;;;;;;;13.13;10.23;;;-0.60;99.90;;;;;;4969992;28;20217;-74
2022/11/22 02:03:22;;;;;;;10.60;9.20;;;-0.70;99.90;;;;;;4970349;28;20211;-75
2022/11/22 02:05:50;;;;;;;11.30;9.57;;;-0.70;99.90;;;;;;4969937;28;20341;-74
2022/11/22 02:08:24;;;;;;;12.87;9.60;;;-0.70;99.90;;;;;;4969783;28;20704;-76
2022/11/22 02:10:55;;;;;;;11.03;8.77;;;-0.70;99.90;;;;;;4970000;28;20289;-76
2022/11/22 02:13:23;;;;;;;11.70;9.00;;;-0.70;99.90;;;;;;4970217;28;20286;-74
2022/11/22 02:15:51;;;;;;;10.93;9.30;;;-0.70;99.90;;;;;;4988305;28;20333;-75
2022/11/22 02:18:19;;;;;;;12.43;9.93;;;-0.70;99.90;;;;;;4989234;28;20301;-74
2022/11/22 02:20:47;;;;;;;13.37;9.87;;;-0.70;99.90;;;;;;4989320;28;20293;-77
2022/11/22 02:23:24;;;;;;;13.40;9.60;;;-0.70;99.90;;;;;;4978074;28;20294;-74
2022/11/22 02:25:55;;;;;;;11.97;9.07;;;-0.70;99.90;;;;;;4969322;28;20207;-74
2022/11/22 02:28:22;;;;;;;12.87;9.50;;;-0.70;99.90;;;;;;4969760;28;20205;-74
2022/11/22 02:30:49;;;;;;;13.73;9.90;;;-0.70;99.90;;;;;;4969803;28;20207;-74
2022/11/22 02:33:16;;;;;;;11.87;9.97;;;-0.70;99.90;;;;;;4969927;28;20242;-75
2022/11/22 02:35:44;;;;;;;12.40;9.80;;;-0.70;99.90;;;;;;4969786;28;20227;-76
2022/11/22 02:38:15;;;;;;;11.63;9.90;;;-0.70;99.90;;;;;;4969796;28;20802;-77
2022/11/22 02:40:45;;;;;;;12.37;9.67;;;-0.70;99.90;;;;;;4969656;28;20211;-77
2022/11/22 02:43:17;;;;;;;12.70;9.60;;;-0.70;99.90;;;;;;4969385;28;20302;-73
2022/11/22 02:45:44;;;;;;;11.77;9.10;;;-0.60;99.90;;;;;;4969472;28;20202;-73
2022/11/22 02:48:13;;;;;;;12.50;9.63;;;-0.70;99.90;;;;;;4969674;28;20234;-72
2022/11/22 02:50:40;;;;;;;12.90;9.63;;;-0.70;99.90;;;;;;4969339;28;20301;-73
2022/11/22 02:53:08;;;;;;;11.90;9.37;;;-0.70;99.90;;;;;;4969097;28;20326;-72
2022/11/22 02:55:35;;;;;;;15.03;10.57;;;-0.70;99.90;;;;;;4969613;28;20317;-73
2022/11/22 02:58:04;;;;;;;11.93;9.43;;;-0.70;99.90;;;;;;4969531;28;20221;-72
2022/11/22 03:00:32;;;;;;;12.90;9.53;;;-0.70;99.90;;;;;;4969115;28;20586;-74
2022/11/22 03:02:59;;;;;;;11.43;9.13;;;-0.70;99.90;;;;;;4969152;28;20850;-73
2022/11/22 03:05:26;;;;;;;11.00;9.57;;;-0.70;99.90;;;;;;4968902;28;20338;-73
2022/11/22 03:07:53;;;;;;;11.80;9.57;;;-0.70;99.90;;;;;;4968963;28;20754;-73
2022/11/22 03:10:20;;;;;;;11.73;9.13;;;-0.60;99.90;;;;;;4969075;28;20302;-73
2022/11/22 03:12:48;;;;;;;10.13;8.90;;;-0.70;99.90;;;;;;4969470;28;20206;-72
2022/11/22 03:15:15;;;;;;;11.73;9.20;;;-0.70;99.90;;;;;;4968975;28;20306;-73
2022/11/22 03:17:43;;;;;;;12.70;10.13;;;-0.70;99.90;;;;;;4969342;28;20224;-72
2022/11/22 03:20:10;;;;;;;12.53;9.47;;;-0.70;99.90;;;;;;4968716;28;20297;-74
2022/11/22 03:22:37;;;;;;;12.53;9.67;;;-0.60;99.90;;;;;;4969245;28;20295;-73
2022/11/22 03:25:05;;;;;;;10.30;9.03;;;-0.60;99.90;;;;;;4968909;28;20303;-73
2022/11/22 03:27:32;;;;;;;13.10;10.20;;;-0.60;99.90;;;;;;4969021;28;20662;-77
2022/11/22 03:29:59;;;;;;;13.23;10.57;;;-0.70;99.90;;;;;;4968062;28;20285;-74
2022/11/22 03:32:25;;;;;;;13.33;9.90;;;-0.70;99.90;;;;;;4966704;28;20305;-74
2022/11/22 03:34:54;;;;;;;12.43;9.93;;;-0.70;99.90;;;;;;4966304;28;20313;-73
2022/11/22 03:37:20;;;;;;;13.73;10.57;;;-0.70;99.90;;;;;;4966842;28;20325;-74
2022/11/22 03:39:47;;;;;;;13.10;10.27;;;-0.70;99.90;;;;;;4953544;28;20657;-73
2022/11/22 03:42:14;;;;;;;12.27;10.60;;;-0.70;99.90;;;;;;4962425;28;20728;-75
2022/11/22 03:44:41;;;;;;;12.40;9.97;;;-0.70;99.90;;;;;;4966634;28;20211;-76
2022/11/22 03:47:08;;;;;;;13.47;10.67;;;-0.70;99.90;;;;;;4955023;28;20213;-74
2022/11/22 03:49:35;;;;;;;11.63;10.27;;;-0.70;99.90;;;;;;4949462;28;20310;-73
2022/11/22 03:52:03;;;;;;;13.93;10.33;;;-0.70;99.90;;;;;;4966655;28;20277;-76
2022/11/22 03:54:30;;;;;;;12.83;10.20;;;-0.70;99.90;;;;;;4966056;28;20305;-75
2022/11/22 03:56:57;;;;;;;12.90;10.67;;;-0.70;99.90;;;;;;4961912;28;20272;-75
2022/11/22 03:59:24;;;;;;;15.03;11.50;;;-0.70;99.90;;;;;;4966458;28;20211;-74
2022/11/22 04:01:51;;;;;;;12.93;10.33;;;-0.70;99.90;;;;;;4966612;28;20245;-77
2022/11/22 04:04:18;;;;;;;15.50;10.87;;;-0.70;99.90;;;;;;4966307;28;20700;-76
2022/11/22 04:06:44;;;;;;;15.13;10.30;;;-0.70;99.90;;;;;;4958718;28;20333;-74
2022/11/22 04:09:13;;;;;;;14.03;11.43;;;-0.80;99.90;;;;;;4967434;28;20238;-78
2022/11/22 04:11:40;;;;;;;14.70;10.70;;;-0.80;99.90;;;;;;4967123;28;20217;-77
2022/11/22 04:16:51;;;;;;;13.97;10.67;;;-0.80;99.90;;;;;;4967026;28;20237;-74
2022/11/22 04:19:18;;;;;;;13.10;10.90;;;-0.80;99.90;;;;;;4968752;28;20234;-77
2022/11/22 04:21:44;;;;;;;16.83;11.00;;;-0.80;99.90;;;;;;4968457;28;20203;-74
2022/11/22 04:27:11;;;;;;;13.23;10.77;;;-0.70;99.90;;;;;;4908312;29;20208;-75
2022/11/22 04:29:38;;;;;;;13.63;10.57;;;-0.70;99.90;;;;;;4908118;29;20295;-76
2022/11/22 04:34:49;;;;;;;14.00;11.03;;;-0.70;99.90;;;;;;4950319;28;20286;-77
2022/11/22 04:37:16;;;;;;;15.10;11.50;;;-0.70;99.90;;;;;;4967969;28;20788;-74
2022/11/22 04:39:45;;;;;;;17.87;11.13;;;-0.70;99.90;;;;;;4968523;28;20310;-74
2022/11/22 04:44:55;;;;;;;15.00;11.13;;;-0.70;99.90;;;;;;4967853;28;20202;-78
2022/11/22 04:52:56;;;;;;;15.00;11.23;;;-0.60;99.90;;;;;;4971058;28;20222;-74
2022/11/22 04:55:24;;;;;;;15.10;10.87;;;-0.60;99.90;;;;;;4971571;28;20705;-74
2022/11/22 04:57:51;;;;;;;16.17;12.07;;;-0.60;99.90;;;;;;4971179;28;20756;-75
2022/11/22 05:00:18;;;;;;;15.43;11.93;;;-0.60;99.90;;;;;;4982374;28;20641;-77
2022/11/22 05:02:45;;;;;;;17.13;12.20;;;-0.60;99.90;;;;;;4990792;28;20206;-76
2022/11/22 05:05:12;;;;;;;17.70;12.03;;;-0.60;99.90;;;;;;4990675;28;20296;-76
2022/11/22 05:07:39;;;;;;;16.30;11.93;;;-0.60;99.90;;;;;;4986504;28;20305;-77
2022/11/22 05:10:07;;;;;;;16.57;12.20;;;-0.60;99.90;;;;;;4971484;28;20234;-74
2022/11/22 05:12:35;;;;;;;18.03;11.97;;;-0.60;99.90;;;;;;4971160;28;20310;-73
2022/11/22 05:15:02;;;;;;;16.33;12.10;;;-0.60;99.90;;;;;;4971229;28;20302;-77
2022/11/22 05:17:29;;;;;;;18.07;12.30;;;-0.60;99.90;;;;;;4971264;28;20262;-75
2022/11/22 05:19:56;;;;;;;16.80;12.37;;;-0.50;99.90;;;;;;4971245;28;20279;-76
2022/11/22 05:23:53;;;;;;;19.33;12.83;;;-0.50;99.90;;;;;;4971154;28;20301;-74
2022/11/22 05:25:09;;;;;;;16.80;12.40;;;-0.60;99.90;;;;;;4970563;28;20206;-75
2022/11/22 05:27:37;;;;;;;18.87;12.63;;;-0.60;99.90;;;;;;4970935;28;20207;-74
2022/11/22 05:30:06;;;;;;;20.50;12.87;;;-0.60;99.90;;;;;;4971035;28;20240;-77
2022/11/22 05:32:33;;;;;;;18.80;13.63;;;-0.60;99.90;;;;;;4971036;28;20210;-76
2022/11/22 05:35:00;;;;;;;18.70;13.07;;;-0.50;99.90;;;;;;4970823;28;20218;-77
2022/11/22 05:37:28;;;;;;;21.03;12.43;;;-0.50;99.90;;;;;;4970333;28;20238;-73
2022/11/22 05:39:54;;;;;;;19.27;13.97;;;-0.50;99.90;;;;;;4970594;28;20622;-74
2022/11/22 05:42:21;;;;;;;20.50;13.47;;;-0.50;99.90;;;;;;4970832;28;20218;-74
2022/11/22 05:44:49;;;;;;;19.33;12.87;;;-0.50;99.90;;;;;;4970577;28;20236;-77
2022/11/22 05:47:16;;;;;;;19.30;14.13;;;-0.50;99.90;;;;;;4970808;28;20241;-77
2022/11/22 05:49:44;;;;;;;21.23;14.17;;;-0.50;99.90;;;;;;4970483;28;20661;-77
2022/11/22 05:52:11;;;;;;;19.20;13.37;;;-0.40;99.90;;;;;;4970805;28;20237;-74
2022/11/22 05:54:38;;;;;;;19.13;13.97;;;-0.40;99.90;;;;;;4970496;28;20230;-74
2022/11/22 05:57:06;;;;;;;18.53;13.17;;;-0.50;99.90;;;;;;4970364;28;20322;-76
2022/11/22 05:59:33;;;;;;;21.63;13.67;;;-0.40;99.90;;;;;;4974841;28;20236;-77
2022/11/22 06:02:01;;;;;;;19.67;13.60;;;-0.40;99.90;;;;;;4989543;28;20301;-75
2022/11/22 06:04:28;;;;;;;21.27;13.93;;;-0.40;99.90;;;;;;4990115;28;20305;-74
2022/11/22 06:06:55;;;;;;;19.43;13.40;;;-0.40;99.90;;;;;;4975760;28;20369;-74
2022/11/22 06:09:22;;;;;;;18.30;12.97;;;-0.40;99.90;;;;;;4967577;28;20744;-74
2022/11/22 06:11:49;;;;;;;18.60;13.20;;;-0.40;99.90;;;;;;4969993;28;20211;-77
2022/11/22 06:14:16;;;;;;;19.07;13.00;;;-0.40;99.90;;;;;;4970639;28;20301;-75
2022/11/22 06:16:43;;;;;;;19.90;13.67;;;-0.40;99.90;;;;;;4969838;28;20605;-75
2022/11/22 06:19:12;;;;;;;18.37;13.77;;;-0.40;99.90;;;;;;4970419;28;20298;-76
2022/11/22 06:21:39;;;;;;;17.40;12.70;;;-0.40;99.90;;;;;;4969967;28;20211;-74
2022/11/22 06:24:07;;;;;;;20.30;13.97;;;-0.40;99.90;;;;;;4969826;28;20309;-74
2022/11/22 06:26:34;;;;;;;21.33;14.30;;;-0.40;99.90;;;;;;4983996;28;20206;-77
2022/11/22 06:29:02;;;;;;;17.13;12.70;;;-0.40;99.90;;;;;;4973018;28;20305;-76
2022/11/22 06:31:29;;;;;;;20.30;12.93;;;-0.40;99.90;;;;;;4970019;28;20229;-74
2022/11/22 06:33:58;;;;;;;18.17;12.97;;;-0.40;99.90;;;;;;4969686;28;20234;-76
2022/11/22 06:36:28;;;;;;;19.63;12.33;;;-0.40;99.90;;;;;;4969405;28;20601;-74
2022/11/22 06:38:55;;;;;;;18.70;12.80;;;-0.40;99.90;;;;;;4969466;28;20634;-77
2022/11/22 06:41:23;;;;;;;20.37;13.17;;;-0.40;99.90;;;;;;4969743;28;20298;-77
2022/11/22 06:43:52;;;;;;;18.07;12.53;;;-0.40;99.90;;;;;;4969835;28;20295;-74
2022/11/22 06:46:20;;;;;;;20.47;13.10;;;-0.40;99.90;;;;;;4969411;28;20207;-74
2022/11/22 06:48:47;;;;;;;19.93;12.83;;;-0.30;99.90;;;;;;4969525;28;20749;-74
2022/11/22 06:51:16;;;;;;;20.13;13.07;;;-0.30;99.90;;;;;;4969288;28;20302;-73
2022/11/22 06:53:45;;;;;;;18.73;12.90;;;-0.30;99.90;;;;;;4969583;28;20338;-77
2022/11/22 06:56:14;;;;;;;18.77;12.27;;;-0.30;99.90;;;;;;4969432;28;20628;-74
2022/11/22 06:58:41;;;;;;;19.23;13.10;;;-0.30;99.90;;;;;;4969475;28;20210;-75
2022/11/22 07:01:10;;;;;;;19.10;13.23;;;-0.30;99.90;;;;;;4986585;28;20726;-77
2022/11/22 07:03:38;;;;;;;20.27;13.23;;;-0.30;99.90;;;;;;4988501;28;20210;-78
2022/11/22 07:06:06;;;;;;;21.97;14.27;;;-0.30;99.90;;;;;;4973985;28;20243;-74
2022/11/22 07:08:34;;;;;;;19.43;13.07;;;-0.30;99.90;;;;;;4969146;28;20225;-75
2022/11/22 07:11:04;;;;;;;18.13;12.90;;;-0.30;99.90;;;;;;4968633;28;20729;-75
2022/11/22 07:13:32;;;;;;;19.20;12.77;;;-0.30;99.90;;;;;;4969072;28;20195;-77
2022/11/22 07:16:00;;;;;;;17.90;12.67;;;-0.30;99.90;;;;;;4968532;28;20265;-74
2022/11/22 07:18:27;;;;;;;20.00;13.07;;;-0.30;99.90;;;;;;4969101;28;20332;-73
2022/11/22 07:21:01;;;;;;;21.23;13.00;;;-0.30;99.90;;;;;;4968769;28;20258;-77
2022/11/22 07:23:28;;;;;;;20.50;13.57;;;-0.30;99.90;;;;;;4968421;28;20924;-75
2022/11/22 07:25:55;;;;;;;20.73;12.97;;;-0.20;99.90;;;;;;4968858;28;20295;-74
2022/11/22 07:28:24;;;;;;;20.70;13.00;;;-0.20;99.90;;;;;;4968872;28;20203;-75
2022/11/22 07:30:51;;;;;;;19.83;13.20;;;-0.20;99.90;;;;;;4968817;28;20298;-74
2022/11/22 07:33:18;;;;;;;21.63;13.40;;;-0.20;99.90;;;;;;4968624;28;20297;-74
2022/11/22 07:35:45;;;;;;;19.80;13.37;;;-0.20;99.90;;;;;;4968131;28;20784;-74
2022/11/22 07:38:12;;;;;;;20.70;13.80;;;-0.20;99.90;;;;;;4968389;28;20321;-77
2022/11/22 07:40:39;;;;;;;20.60;13.57;;;-0.20;99.90;;;;;;4969113;28;20301;-75
2022/11/22 07:43:05;;;;;;;20.27;13.63;;;-0.20;99.90;;;;;;4968906;28;20284;-74
2022/11/22 07:45:34;;;;;;;21.10;13.63;;;-0.20;99.90;;;;;;4968755;28;20318;-75
2022/11/22 07:48:01;;;;;;;17.97;12.97;;;-0.20;99.90;;;;;;4968552;28;20249;-73
2022/11/22 07:50:28;;;;;;;19.57;13.47;;;-0.20;99.90;;;;;;4968863;28;20213;-75
2022/11/22 07:52:56;;;;;;;20.30;13.87;;;-0.20;99.90;;;;;;4968507;28;20321;-77
2022/11/22 07:55:24;;;;;;;16.90;12.73;;;-0.10;99.90;;;;;;4968866;28;20239;-76
2022/11/22 07:57:52;;;;;;;18.97;13.20;;;-0.10;99.90;;;;;;4968663;28;20313;-76
2022/11/22 08:00:19;;;;;;;18.97;12.97;;;-0.10;99.90;;;;;;4968290;28;20674;-76
2022/11/22 08:02:47;;;;;;;20.30;13.77;;;-0.10;99.90;;;;;;4968432;28;20313;-77
2022/11/22 08:05:14;;;;;;;20.60;13.47;;;-0.10;99.90;;;;;;4968303;28;20298;-76
2022/11/22 08:07:46;;;;;;;20.47;13.23;;;0.00;99.90;;;;;;4968658;28;20257;-77
2022/11/22 08:10:13;;;;;;;18.00;12.60;;;0.00;99.90;;;;;;4968648;28;20218;-75
2022/11/22 08:12:40;;;;;;;18.27;13.13;;;0.00;99.90;;;;;;4968390;28;20214;-77
2022/11/22 08:15:08;;;;;;;19.30;12.57;;;0.00;99.90;;;;;;4968152;28;20647;-74
2022/11/22 08:17:35;;;;;;;16.57;11.83;;;0.00;99.90;;;;;;4968783;28;20325;-76
2022/11/22 08:20:04;;;;;;;18.10;12.57;;;0.00;99.90;;;;;;4968407;28;20578;-76
2022/11/22 08:22:31;;;;;;;18.40;12.57;;;0.00;99.90;;;;;;4963083;28;20250;-77
2022/11/22 08:24:58;;;;;;;17.27;12.53;;;-0.20;99.90;;;;;;4952662;28;20298;-74
2022/11/22 08:27:25;;;;;;;17.50;12.80;;;0.00;99.90;;;;;;4953355;28;20229;-76
2022/11/22 08:29:52;;;;;;;19.03;12.83;;;0.10;99.90;;;;;;4952801;28;20294;-73
2022/11/22 08:32:18;;;;;;;20.07;12.97;;;0.10;99.90;;;;;;4966304;28;20309;-77
2022/11/22 08:34:45;;;;;;;19.53;13.33;;;0.10;99.90;;;;;;4971953;28;20217;-77
2022/11/22 08:37:14;;;;;;;19.13;11.90;;;0.10;99.90;;;;;;4971660;28;20230;-77
2022/11/22 08:39:40;;;;;;;19.10;13.30;;;0.10;99.90;;;;;;4971697;28;21053;-74
2022/11/22 08:42:07;;;;;;;19.47;13.27;;;0.10;99.90;;;;;;4971635;28;20318;-74
2022/11/22 08:44:34;;;;;;;19.40;13.37;;;0.10;99.90;;;;;;4971663;28;20301;-75
2022/11/22 08:47:01;;;;;;;19.47;13.33;;;0.10;99.90;;;;;;4971798;28;20298;-76
2022/11/22 08:49:28;;;;;;;20.47;13.77;;;0.10;99.90;;;;;;4972060;28;20232;-76
2022/11/22 08:51:55;;;;;;;21.10;12.73;;;0.10;99.90;;;;;;4971399;28;20718;-74
2022/11/22 08:54:23;;;;;;;19.57;13.07;;;0.10;99.90;;;;;;4971937;28;20277;-74
2022/11/22 08:56:50;;;;;;;18.60;13.33;;;0.10;99.90;;;;;;4971699;28;20402;-74
2022/11/22 08:59:17;;;;;;;20.67;13.43;;;0.20;99.90;;;;;;4974368;28;20294;-74
2022/11/22 09:01:44;;;;;;;20.83;13.63;;;0.20;99.90;;;;;;4990886;28;20317;-74
2022/11/22 09:04:11;;;;;;;18.87;13.07;;;0.20;99.90;;;;;;4991303;28;20238;-77
2022/11/22 09:06:38;;;;;;;21.30;13.70;;;0.20;99.90;;;;;;4990562;28;20266;-75
2022/11/22 09:09:05;;;;;;;19.10;12.73;;;0.20;99.90;;;;;;4975123;28;20251;-74
2022/11/22 09:11:33;;;;;;;19.07;13.57;;;0.30;99.90;;;;;;4971565;28;20210;-77
2022/11/22 09:14:01;;;;;;;21.57;13.70;;;0.30;99.90;;;;;;4971082;28;20224;-77
2022/11/22 09:16:28;;;;;;;24.37;14.73;;;0.30;99.90;;;;;;4970840;28;20215;-74
2022/11/22 09:18:55;;;;;;;19.63;12.80;;;0.30;99.90;;;;;;4971032;28;20241;-75
2022/11/22 09:21:22;;;;;;;19.73;13.43;;;0.30;99.90;;;;;;4971031;28;20213;-74
2022/11/22 09:23:52;;;;;;;19.93;13.33;;;0.30;99.90;;;;;;4954991;28;20322;-74
2022/11/22 09:26:21;;;;;;;21.70;13.73;;;0.30;99.90;;;;;;4951957;28;20294;-74
2022/11/22 09:28:49;;;;;;;20.03;13.10;;;0.30;99.90;;;;;;4966314;28;20227;-74
2022/11/22 09:31:17;;;;;;;20.50;13.30;;;0.30;99.90;;;;;;4970887;28;20207;-75
2022/11/22 09:33:45;;;;;;;20.00;13.67;;;0.30;99.90;;;;;;4970711;28;21007;-74
2022/11/22 09:36:14;;;;;;;18.43;12.77;;;0.30;99.90;;;;;;4970866;28;20290;-74
2022/11/22 09:38:41;;;;;;;22.20;13.77;;;0.30;99.90;;;;;;4970815;28;20239;-73
2022/11/22 09:41:21;;;;;;;22.03;13.80;;;0.30;99.90;;;;;;4970464;28;20217;-74
2022/11/22 09:44:00;;;;;;;20.30;14.03;;;0.40;99.90;;;;;;4970599;28;20537;-76
2022/11/22 09:46:35;;;;;;;19.70;12.90;;;0.40;99.90;;;;;;4970675;28;20265;-77
2022/11/22 09:49:16;;;;;;;20.13;13.40;;;0.40;99.90;;;;;;4970746;28;20286;-74
2022/11/22 09:51:49;;;;;;;20.97;13.00;;;0.40;99.90;;;;;;4970696;28;20285;-77
2022/11/22 09:54:22;;;;;;;20.83;13.83;;;0.50;99.90;;;;;;4970747;28;20233;-74
2022/11/22 09:56:53;;;;;;;19.43;13.03;;;0.50;99.90;;;;;;4970519;28;20230;-74
2022/11/22 09:59:28;;;;;;;22.67;14.70;;;0.50;99.90;;;;;;4970562;28;20223;-76
2022/11/22 10:02:02;;;;;;;20.63;13.73;;;0.50;99.90;;;;;;4970466;28;20276;-76
2022/11/22 10:04:35;;;;;;;23.40;13.93;;;0.50;99.90;;;;;;4970623;28;20203;-76
2022/11/22 10:07:10;;;;;;;21.17;13.87;;;0.50;99.90;;;;;;4969726;28;20253;-77
2022/11/22 10:09:43;;;;;;;21.50;13.87;;;0.50;99.90;;;;;;4951503;29;20223;-77
2022/11/22 10:12:15;;;;;;;20.97;13.47;;;0.60;99.90;;;;;;4969206;28;20218;-77
2022/11/22 10:14:50;;;;;;;22.73;14.07;;;0.60;99.90;;;;;;4970381;28;20207;-74
2022/11/22 10:17:28;;;;;;;22.70;14.83;;;0.60;99.90;;;;;;4970277;28;20732;-77
2022/11/22 10:20:04;;;;;;;22.33;13.90;;;0.60;99.90;;;;;;4970478;28;20222;-75
2022/11/22 10:22:32;;;;;;;21.43;14.13;;;0.60;99.90;;;;;;4970698;28;20199;-76
2022/11/22 10:25:00;;;;;;;21.17;14.37;;;0.60;99.90;;;;;;4970040;28;20261;-75
2022/11/22 10:27:31;;;;;;;20.10;13.60;;;0.70;99.90;;;;;;4969718;28;20800;-77
2022/11/22 10:30:05;;;;;;;24.17;14.40;;;0.70;99.90;;;;;;4970007;28;20199;-74
2022/11/22 10:32:38;;;;;;;22.93;14.27;;;0.70;99.90;;;;;;4970065;28;20206;-73
2022/11/22 10:35:23;;;;;;;25.67;15.73;;;0.70;99.90;;;;;;4969801;28;20217;-77
2022/11/22 10:38:02;;;;;;;21.63;13.77;;;0.70;99.90;;;;;;4969784;28;20318;-74
2022/11/22 10:40:36;;;;;;;22.93;13.60;;;0.70;99.90;;;;;;4969868;28;20199;-76
2022/11/22 10:43:28;;;;;;;24.37;14.57;;;0.70;99.90;;;;;;4969698;28;20207;-76
2022/11/22 10:46:07;;;;;;;22.97;15.00;;;0.70;99.90;;;;;;4968933;28;20210;-77
2022/11/22 10:48:43;;;;;;;25.70;14.33;;;0.70;99.90;;;;;;4969864;28;20306;-75
2022/11/22 10:51:19;;;;;;;25.97;14.67;;;0.80;99.90;;;;;;4969607;28;20214;-73
2022/11/22 10:53:58;;;;;;;23.50;14.90;;;0.80;99.90;;;;;;4969128;28;20265;-74
2022/11/22 10:56:31;;;;;;;20.93;13.50;;;0.80;99.90;;;;;;4969397;28;20199;-74
2022/11/22 10:59:15;;;;;;;22.63;14.80;;;0.80;99.90;;;;;;4969533;28;20312;-75
2022/11/22 11:01:49;;;;;;;21.53;14.10;;;0.80;99.90;;;;;;4988494;28;20237;-74
2022/11/22 11:04:17;;;;;;;22.73;14.77;;;0.80;99.90;;;;;;4975072;28;20699;-75
2022/11/22 11:06:48;;;;;;;23.00;14.73;;;0.80;99.90;;;;;;4968950;28;20253;-76
2022/11/22 11:09:22;;;;;;;22.40;14.67;;;0.80;99.90;;;;;;4969306;28;20294;-76
2022/11/22 11:11:51;;;;;;;24.43;14.23;;;0.90;99.90;;;;;;4968978;28;20311;-74
2022/11/22 11:14:27;;;;;;;23.50;14.13;;;0.90;99.90;;;;;;4969246;28;20302;-73
2022/11/22 11:16:55;;;;;;;22.50;14.50;;;0.90;99.90;;;;;;4968667;28;20286;-76
2022/11/22 11:19:24;;;;;;;22.30;14.07;;;0.90;99.90;;;;;;4969245;28;20325;-77
2022/11/22 11:21:58;;;;;;;23.07;13.97;;;0.90;99.90;;;;;;4968600;28;20297;-77
2022/11/22 11:24:27;;;;;;;26.20;15.50;;;0.90;99.90;;;;;;4969010;28;20207;-74
2022/11/22 11:26:56;;;;;;;22.90;13.80;;;1.00;99.90;;;;;;4968780;28;20290;-74
2022/11/22 11:29:39;;;;;;;23.60;14.03;;;1.00;99.90;;;;;;4968500;28;20762;-74
2022/11/22 11:32:10;;;;;;;23.50;15.23;;;1.00;99.90;;;;;;4969057;28;20202;-75
2022/11/22 11:34:40;;;;;;;27.10;15.90;;;1.10;99.90;;;;;;4969193;28;20205;-76
2022/11/22 11:37:18;;;;;;;24.03;14.33;;;1.00;99.90;;;;;;4968320;28;20968;-77
2022/11/22 11:39:46;;;;;;;25.17;14.83;;;1.10;99.90;;;;;;4949687;29;20574;-74
2022/11/22 11:42:22;;;;;;;21.10;14.40;;;1.10;99.90;;;;;;4949254;28;20218;-76
2022/11/22 11:44:49;;;;;;;23.37;14.30;;;1.10;99.90;;;;;;4949385;28;20200;-75
2022/11/22 11:47:31;;;;;;;21.90;14.30;;;1.10;99.90;;;;;;4949524;28;20310;-73
2022/11/22 11:49:57;;;;;;;23.30;14.33;;;1.10;99.90;;;;;;4949615;28;20205;-76
2022/11/22 11:52:27;;;;;;;20.70;14.07;;;1.10;99.90;;;;;;4949210;28;20259;-77
2022/11/22 11:54:56;;;;;;;22.90;14.70;;;1.20;99.90;;;;;;4949606;28;20208;-76
2022/11/22 11:57:28;;;;;;;24.43;14.97;;;1.10;99.90;;;;;;4949661;28;20297;-74
2022/11/22 11:59:57;;;;;;;24.33;15.00;;;1.10;99.90;;;;;;4968625;28;20247;-75
2022/11/22 12:02:32;;;;;;;25.07;16.03;;;1.20;99.90;;;;;;4991578;28;20212;-74
2022/11/22 12:05:02;;;;;;;23.07;14.50;;;1.20;99.90;;;;;;4972788;28;20298;-76
2022/11/22 12:07:39;;;;;;;24.60;15.60;;;1.20;99.90;;;;;;4969495;28;20365;-76
2022/11/22 12:10:29;;;;;;;25.40;15.10;;;1.20;99.90;;;;;;4953335;28;20310;-77
2022/11/22 12:13:01;;;;;;;25.23;14.57;;;1.20;99.90;;;;;;4953447;29;20195;-77
2022/11/22 12:15:39;;;;;;;22.60;14.40;;;1.20;99.90;;;;;;4953076;29;20195;-74
2022/11/22 12:18:30;;;;;;;24.73;15.80;;;1.20;99.90;;;;;;4952804;29;20223;-77
2022/11/22 12:21:06;;;;;;;23.07;15.20;;;1.20;99.90;;;;;;4972121;28;20727;-76
2022/11/22 12:23:39;;;;;;;22.33;15.20;;;1.20;99.90;;;;;;4971955;28;20282;-74
2022/11/22 12:26:06;;;;;;;23.87;15.13;;;1.20;99.90;;;;;;4972654;28;20245;-74
2022/11/22 12:28:33;;;;;;;22.73;14.53;;;1.20;99.90;;;;;;4972324;28;20204;-77
2022/11/22 12:31:07;;;;;;;23.27;14.20;;;1.20;99.90;;;;;;4971928;28;20293;-75
2022/11/22 12:33:39;;;;;;;23.23;14.93;;;1.20;99.90;;;;;;4972256;28;20289;-76
2022/11/22 12:36:13;;;;;;;24.27;14.60;;;1.30;99.90;;;;;;4971665;28;20211;-74
2022/11/22 12:38:43;;;;;;;23.70;14.57;;;1.30;99.90;;;;;;4972129;28;20314;-75
2022/11/22 12:41:15;;;;;;;22.83;14.73;;;1.30;99.90;;;;;;4972247;28;20192;-74
2022/11/22 12:43:46;;;;;;;25.23;15.37;;;1.30;99.90;;;;;;4971429;28;20685;-76
2022/11/22 12:46:18;;;;;;;23.50;15.07;;;1.30;99.90;;;;;;4971175;28;20219;-75
2022/11/22 12:48:51;;;;;;;23.97;14.00;;;1.30;99.90;;;;;;4971639;28;20230;-74
2022/11/22 12:51:24;;;;;;;23.80;14.63;;;1.40;99.90;;;;;;4971568;28;20709;-74
2022/11/22 12:53:53;;;;;;;24.60;15.23;;;1.40;99.90;;;;;;4971877;28;20656;-76
2022/11/22 12:56:26;;;;;;;21.93;15.27;;;1.30;99.90;;;;;;4971709;28;20211;-74
2022/11/22 12:59:00;;;;;;;22.90;15.57;;;1.40;99.90;;;;;;4971087;28;20226;-77
2022/11/22 13:01:34;;;;;;;23.70;14.37;;;1.40;99.90;;;;;;4957923;28;20290;-77